Flight Track Log - Related Links

Times and Time Zones

All times are in EST time to prevent confusion due to time zone crossing. See the AWE1714 flight status page for this flight to view local times or setup timezone preferences in your user account.

Time Position Orientation Groundspeed Altitude Reporting Facility
EST Latitude Longitude Course Direction KTS MPH feet Rate Location/Type
Sat 08:19:19 AM 35.2264 -80.9394 165° South 159 183 1,400  Level Atlanta Center
Sat 08:20:20 AM 35.2781 -80.9247 13° North 201 231 3,000 1,721 Climbing Atlanta Center
Sat 08:21:00 AM 35.0306 -80.7071 175° South  Level Estimated
Sat 08:21:21 AM 35.3036 -80.8578 65° Northeast 274 315 4,900  Level Atlanta Center
Sat 08:21:58 AM 35.2958 -80.7969 99° East 299 344 6,400 2,660 Climbing Atlanta Center
Sat 08:22:00 AM 34.9389 -80.5865 180° South  Level Estimated
Sat 08:22:58 AM 35.2478 -80.7175 127° Southeast 299 344 9,200  Level Atlanta Center
Sat 08:23:00 AM 34.8470 -80.4662 180° South  Level Estimated
Sat 08:23:58 AM 35.1797 -80.6717 151° Southeast 273 314 11,400  Level Atlanta Center
Sat 08:24:00 AM 34.7551 -80.3462 165° South  Level Estimated
Sat 08:24:58 AM 35.0928 -80.7008 195° South 266 306 12,800  Level Atlanta Center
Sat 08:26:36 AM 34.9364 -80.7503 195° South 341 392 16,400 1,975 Climbing Jacksonville Center
Sat 08:27:36 AM 34.8389 -80.7856 197° South 360 414 18,000 1,500 Climbing Jacksonville Center
Sat 08:28:36 AM 34.7372 -80.8133 193° South 372 428 19,400 1,400 Climbing Jacksonville Center
Sat 08:29:36 AM 34.6294 -80.8514 196° South 383 441 20,800 1,289 Climbing Jacksonville Center
Sat 08:30:37 AM 34.5153 -80.8867 194° South 407 468 22,000 1,150 Climbing Jacksonville Center
Sat 08:31:36 AM 34.3897 -80.8669 173° South 429 494 23,100 1,109 Climbing Jacksonville Center
Sat 08:32:36 AM 34.2600 -80.8500 174° South 447 514 24,200 1,200 Climbing Jacksonville Center
Sat 08:33:36 AM 34.1264 -80.8306 173° South 465 535 25,500 1,300 Climbing Jacksonville Center
Sat 08:34:36 AM 33.9883 -80.8111 173° South 487 560 26,800 1,250 Climbing Jacksonville Center
Sat 08:35:36 AM 33.8581 -80.7544 160° South 493 567 28,000 1,100 Climbing Jacksonville Center
Sat 08:36:36 AM 33.7375 -80.6622 148° Southeast 498 573 29,000 1,000 Climbing Jacksonville Center
Sat 08:37:36 AM 33.6147 -80.5706 148° Southeast 515 593 30,000 800 Climbing Jacksonville Center
Sat 08:38:36 AM 33.4917 -80.4667 145° Southeast 527 606 30,600 1,050 Climbing Jacksonville Center
Sat 08:39:36 AM 33.4178 -80.3119 120° Southeast 519 597 32,100 1,000 Climbing Jacksonville Center
Sat 08:40:36 AM 33.3439 -80.1800 124° Southeast 527 606 32,600 500 Climbing Jacksonville Center
Sat 08:41:36 AM 33.2511 -80.0339 127° Southeast 527 606 33,100 650 Climbing Jacksonville Center
Sat 08:42:36 AM 33.1578 -79.8878 127° Southeast 545 627 33,900 700 Climbing Jacksonville Center
Sat 08:43:36 AM 33.0644 -79.7397 127° Southeast 558 642 34,500 500 Climbing Jacksonville Center
Sat 08:44:36 AM 32.9831 -79.5792 121° Southeast 563 648 34,900 250 Climbing Jacksonville Center
Sat 08:45:36 AM 32.9139 -79.4086 116° Southeast 563 648 35,000 50 Climbing Jacksonville Center
Sat 08:46:36 AM 32.8444 -79.2431 116° Southeast 558 642 35,000  Level Jacksonville Center
Sat 08:47:36 AM 32.7750 -79.0781 117° Southeast 558 642 35,000  Level Jacksonville Center
Sat 08:48:36 AM 32.7050 -78.9081 116° Southeast 563 648 35,000  Level Jacksonville Center
Sat 08:49:36 AM 32.6369 -78.7408 116° Southeast 563 648 35,000  Level Jacksonville Center
Sat 08:50:36 AM 32.5647 -78.5767 118° Southeast 563 648 35,000  Level Jacksonville Center
Sat 08:51:36 AM 32.4942 -78.4075 116° Southeast 563 648 35,000  Level Jacksonville Center
Sat 08:52:36 AM 32.4256 -78.2411 116° Southeast 563 648 35,000  Level Jacksonville Center
Sat 08:53:36 AM 32.3547 -78.0753 117° Southeast 563 648 35,000 -50 Level Jacksonville Center
Sat 08:54:36 AM 32.2836 -77.9144 118° Southeast 563 648 34,900  Descending Jacksonville Center
Sat 08:55:36 AM 32.1922 -77.7697 127° Southeast 558 642 35,000 50 Climbing Jacksonville Center
Sat 08:56:36 AM 32.0683 -77.6492 140° Southeast 558 642 35,000  Level Jacksonville Center
Sat 08:57:36 AM 31.9408 -77.5414 144° Southeast 563 648 35,000  Level Jacksonville Center
Sat 08:58:36 AM 31.8150 -77.4314 143° Southeast 563 648 35,000  Level Jacksonville Center
Sat 08:59:36 AM 31.6908 -77.3117 141° Southeast 570 656 35,000  Level Jacksonville Center
Sat 09:00:36 AM 31.5667 -77.1972 142° Southeast 570 656 35,000  Level Jacksonville Center
Sat 09:01:36 AM 31.4467 -77.0781 140° Southeast 570 656 35,000  Level Jacksonville Center
Sat 09:03:45 AM 31.3500 -77.0000 140° Southeast 551 634 35,000  Level New York Oceanic (ODAPS)
Sat 09:29:39 AM 28.2500 -74.1167 149° Southeast 519 597 35,000  Level New York Oceanic (ODAPS)
Sat 09:48:17 AM 25.7981 -72.5108 150° Southeast 446 513 35,000  Level Miami Center
Sat 09:49:00 AM 25.6274 -72.3979 150° Southeast 519 597 35,000  Level FlightAware Transoceanic
Sat 09:49:17 AM 25.6703 -72.4258 149° Southeast 484 557 35,000  Level Miami Center
Sat 09:50:00 AM 25.5020 -72.3180 150° Southeast 519 597 35,000  Level FlightAware Transoceanic
Sat 09:50:17 AM 25.5508 -72.3494 150° Southeast 499 574 35,000  Level Miami Center
Sat 09:51:00 AM 25.3766 -72.2382 150° Southeast 519 597 35,000  Level FlightAware Transoceanic
Sat 09:51:17 AM 25.4294 -72.2736 151° Southeast 510 587 35,000  Level Miami Center
Sat 09:52:00 AM 25.2511 -72.1587 150° Southeast 519 597 35,000  Level FlightAware Transoceanic
Sat 09:52:17 AM 25.3036 -72.1911 149° Southeast 516 594 35,000  Level Miami Center
Sat 09:53:00 AM 25.1256 -72.0792 150° Southeast 519 597 35,000  Level FlightAware Transoceanic
Sat 09:53:17 AM 25.1778 -72.1111 150° Southeast 516 594 35,000  Level Miami Center
Sat 09:54:17 AM 25.0564 -72.0378 151° Southeast 516 594 35,000  Level Miami Center
Sat 09:55:17 AM 24.9192 -71.9883 162° South 511 588 35,000  Level Miami Center
Sat 09:56:17 AM 24.7911 -71.9703 173° South 488 562 35,000  Level Miami Center
Sat 09:57:17 AM 24.6483 -71.9464 171° South 493 567 35,000  Level Miami Center
Sat 09:58:17 AM 24.5417 -71.8822 151° Southeast 488 562 35,000  Level Miami Center
Sat 09:59:17 AM 24.4378 -71.7722 136° Southeast 489 563 35,000  Level Miami Center
Sat 10:00:17 AM 24.3358 -71.6647 136° Southeast 507 583 35,000 300 Level Miami Center
Sat 10:01:17 AM 24.2297 -71.5531 136° Southeast 513 590 35,600 800 Climbing Miami Center
Sat 10:02:17 AM 24.1275 -71.4392 135° Southeast 520 598 36,600 700 Climbing Miami Center
Sat 10:03:17 AM 24.0233 -71.3347 138° Southeast 520 598 37,000 200 Climbing Miami Center
Sat 10:04:17 AM 23.9194 -71.2325 138° Southeast 520 598 37,000  Level Miami Center
Sat 10:05:17 AM 23.8169 -71.1214 135° Southeast 514 592 37,000  Level Miami Center
Sat 10:06:17 AM 23.7106 -71.0128 137° Southeast 516 594 37,000  Level Miami Center
Sat 10:07:17 AM 23.6078 -70.8975 134° Southeast 518 596 37,000  Level Miami Center
Sat 10:08:17 AM 23.5036 -70.7961 138° Southeast 513 590 37,000  Level Miami Center
Sat 10:09:17 AM 23.3969 -70.6903 138° Southeast 513 590 37,000 -50 Level Miami Center
Sat 10:10:17 AM 23.2969 -70.5889 137° Southeast 513 590 36,900  Descending Miami Center
Sat 10:11:17 AM 23.1964 -70.4833 136° Southeast 506 582 37,000 50 Climbing Miami Center
Sat 10:12:17 AM 23.0897 -70.3758 137° Southeast 513 590 37,000  Level Miami Center
Sat 10:13:17 AM 22.9850 -70.2708 137° Southeast 513 590 37,000  Level Miami Center
Sat 10:14:17 AM 22.8867 -70.1722 137° Southeast 508 585 37,000  Level Miami Center
Sat 10:15:17 AM 22.7839 -70.0672 137° Southeast 502 578 37,000  Level Miami Center
Sat 10:16:17 AM 22.6811 -69.9603 136° Southeast 502 578 37,000  Level Miami Center
Sat 10:17:17 AM 22.5806 -69.8600 137° Southeast 502 578 37,000  Level Miami Center
Sat 10:18:17 AM 22.4733 -69.7514 137° Southeast 502 578 37,000  Level Miami Center
Sat 10:19:17 AM 22.3661 -69.6428 137° Southeast 499 574 37,000  Level Miami Center
Sat 10:20:17 AM 22.2608 -69.5367 137° Southeast 499 574 37,000  Level Miami Center
Sat 10:21:17 AM 22.1600 -69.4350 137° Southeast 499 574 37,000  Level Miami Center
Sat 10:22:17 AM 22.0592 -69.3356 138° Southeast 499 574 37,000  Level Miami Center
Sat 10:23:17 AM 21.9625 -69.2361 136° Southeast 494 568 37,000  Level Miami Center
Sat 10:24:17 AM 21.8531 -69.1328 139° Southeast 499 574 37,000  Level Miami Center
Sat 10:25:17 AM 21.7522 -69.0339 138° Southeast 499 574 37,000  Level Miami Center
Sat 10:26:17 AM 21.6553 -68.9325 136° Southeast 494 568 37,000 50 Level Miami Center
Sat 10:27:17 AM 21.5522 -68.8319 138° Southeast 494 568 37,100  Climbing Miami Center
Sat 10:28:17 AM 21.4511 -68.7311 137° Southeast 494 568 37,000 -50 Descending Miami Center
Sat 10:29:17 AM 21.3458 -68.6308 138° Southeast 494 568 37,000  Level Miami Center
Sat 10:30:17 AM 21.2447 -68.5325 138° Southeast 494 568 37,000  Level Miami Center
Sat 10:31:17 AM 21.1456 -68.4344 137° Southeast 482 555 37,000  Level Miami Center
Sat 10:32:17 AM 21.0444 -68.3342 137° Southeast 487 560 37,000  Level Miami Center
Sat 10:33:17 AM 20.9431 -68.2364 138° Southeast 487 560 37,000  Level Miami Center
Sat 10:34:17 AM 20.8458 -68.1364 136° Southeast 487 560 37,000  Level Miami Center
Sat 10:35:17 AM 20.7558 -68.0181 129° Southeast 499 574 37,000  Level Miami Center
Sat 10:36:17 AM 20.6925 -67.8894 118° Southeast 499 574 37,000 50 Level Miami Center
Sat 10:37:17 AM 20.6203 -67.7594 121° Southeast 499 574 37,100  Climbing Miami Center
Sat 10:38:17 AM 20.5464 -67.6342 122° Southeast 499 574 37,000 -46 Descending Miami Center
Sat 10:39:28 AM 20.4667 -67.5000 122° Southeast 490 564 37,000  Level San Juan Center
Sat 10:40:28 AM 20.4000 -67.3500 115° Southeast 480 552 37,000  Level San Juan Center
Sat 10:41:29 AM 20.3333 -67.2333 121° Southeast 480 552 37,000  Level San Juan Center
Sat 10:42:29 AM 20.2667 -67.1000 118° Southeast 480 552 37,000  Level San Juan Center
Sat 10:43:29 AM 20.2000 -66.9833 121° Southeast 490 564 37,000  Level San Juan Center
Sat 10:44:30 AM 20.1333 -66.8500 118° Southeast 490 564 37,000  Level San Juan Center
Sat 10:45:30 AM 20.0667 -66.7167 118° Southeast 490 564 37,000  Level San Juan Center
Sat 10:46:30 AM 20.0000 -66.6000 121° Southeast 490 564 37,000  Level San Juan Center
Sat 10:47:31 AM 19.9333 -66.4667 118° Southeast 490 564 37,000  Level San Juan Center
Sat 10:48:31 AM 19.8667 -66.3500 121° Southeast 490 564 37,000  Level San Juan Center
Sat 10:49:31 AM 19.8000 -66.2167 118° Southeast 490 564 37,000  Level San Juan Center
Sat 10:50:32 AM 19.7333 -66.1000 121° Southeast 480 552 37,000  Level San Juan Center
Sat 10:51:32 AM 19.6667 -65.9667 118° Southeast 490 564 37,000  Level San Juan Center
Sat 10:52:33 AM 19.5833 -65.8500 127° Southeast 480 552 37,000  Level San Juan Center
Sat 10:53:33 AM 19.5167 -65.7167 118° Southeast 490 564 37,000  Level San Juan Center
Sat 10:54:33 AM 19.4500 -65.6000 121° Southeast 480 552 37,000  Level San Juan Center
Sat 10:55:34 AM 19.3833 -65.4833 121° Southeast 480 552 37,000 -198 Level San Juan Center
Sat 10:56:34 AM 19.3167 -65.3500 118° Southeast 490 564 36,600 -650 Descending San Juan Center
Sat 10:57:34 AM 19.2500 -65.2333 121° Southeast 490 564 35,700 -992 Descending San Juan Center
Sat 10:58:35 AM 19.1833 -65.1000 118° Southeast 480 552 34,600 -992 Descending San Juan Center
Sat 10:59:35 AM 19.1167 -64.9833 121° Southeast 480 552 33,700 -992 Descending San Juan Center
Sat 11:00:36 AM 19.0500 -64.8333 115° Southeast 490 564 32,600 -1,041 Descending San Juan Center
Sat 11:01:36 AM 18.9833 -64.7333 125° Southeast 480 552 31,600 -1,500 Descending San Juan Center
Sat 11:02:36 AM 18.9000 -64.6000 123° Southeast 480 552 29,600 -2,380 Descending San Juan Center
Sat 11:03:37 AM 18.8333 -64.4833 121° Southeast 470 541 26,800 -2,529 Descending San Juan Center
Sat 11:04:37 AM 18.7667 -64.3667 121° Southeast 460 529 24,500 -2,150 Descending San Juan Center
Sat 11:05:37 AM 18.7167 -64.2500 114° Southeast 440 506 22,500 -1,983 Descending San Juan Center
Sat 11:06:38 AM 18.6500 -64.1500 125° Southeast 420 483 20,500 -1,835 Descending San Juan Center
Sat 11:07:38 AM 18.6000 -64.0500 118° Southeast 400 460 18,800 -1,657 Descending San Juan Center
Sat 11:09:39 AM 18.5000 -63.8667 120° Southeast 360 414 15,500 -1,624 Descending San Juan Center
Sat 11:10:39 AM 18.4500 -63.7667 118° Southeast 360 414 13,900 -1,150 Descending San Juan Center
Sat 11:11:39 AM 18.3833 -63.6833 130° Southeast 340 391 13,200 -700 Descending San Juan Center
Sat 11:13:00 AM 18.3003 -63.5195 124° Southeast  Level FlightAware Approximate
Sat 11:20:00 AM 18.0410 -63.1089 125° Southeast  Level Estimated
Sat 11:21:00 AM 18.0410 -63.1089 125° Southeast  Level Estimated
Sat 11:22:00 AM 18.0410 -63.1089 125° Southeast  Level Estimated
Sat 11:23:00 AM 18.0410 -63.1089 125° Southeast  Level Estimated
Sat 11:24:00 AM 18.0410 -63.1089 125° Southeast  Level Estimated
Sat 11:25:00 AM 18.0410 -63.1089 125° Southeast  Level Estimated
Sat 11:26:00 AM 18.0410 -63.1089 125° Southeast  Level Estimated
Sat 11:27:00 AM 18.0410 -63.1089 125° Southeast  Level Estimated
Sat 11:28:00 AM 18.0410 -63.1089 125° Southeast  Level Estimated
Sat 11:29:00 AM 18.0410 -63.1089 125° Southeast  Level Estimated
Sat 11:30:00 AM 18.0410 -63.1089 125° Southeast  Level Estimated
Sat 11:31:00 AM 18.0410 -63.1089 125° Southeast  Level Estimated

Login

Don't have an account? Register now (free) for customized features, flight alerts, and more!